Decoded Metar for KCBM (COLOMBUS in MS, USA) (IATA:CBM) | Meteo·Mobile Aviation Weather
aviador You're here:

KCBM Decoded Metar

COLOMBUS in MS, USA
Report Time2019-01-23 06:56:00
UTC Time2019-01-23 07:05:52
Flight Rules mvfr MVFR
Wind140° at 11 kt
W.Decomp.*RWY 13: 10.8 kt HW 1.9 kt RCW
W.Rank140° ranks 2
Current wind is above 140° avg. (5.6)
Visibility9999 m
Phenomena:N/A
Clouds:Few 016 Hf
Overcast 027 Hf
Expected CloudBase > 400 ft AGL from Temp-Dew spread
Ceiling2,700 ft
Temp09°C (ISA -6)
Dew Point08°C (94% RH)
AAT4.6°C
QNH1019 hPa
Density Alt-505 ft
Elevation220 ft
Report Wrong Elevation
Raw Report
KCBM 230656Z AUTO 14011KT 10SM FEW016 OVC027 09/08 A3010 RMK AO2
RAB02E35RAB37E53 CIG 024V029 CIG 025 RWY31C SLP196 P0003
T00920078 $=

Extra information for KCBM:More info

Metar Taf Metar & Taf Last 4 Metars F.Rules Stats Wind Profile Meteogram Temp Stats Airport Information Weather charts Add Link Nearby VenuesMetar ALERT Operation Metar Decoded Social comments

AIRNAV info for KCBM